sensor_id;sensor_type;location;lat;lon;timestamp;P1;durP1;ratioP1;P2;durP2;ratioP2
22460;SDS011;11397;48.410;11.468;2023-02-07T00:02:24;9.40;;;9.10;;
22460;SDS011;11397;48.410;11.468;2023-02-07T00:07:28;8.23;;;7.93;;
22460;SDS011;11397;48.410;11.468;2023-02-07T00:12:30;9.05;;;8.75;;
22460;SDS011;11397;48.410;11.468;2023-02-07T00:17:31;8.65;;;8.35;;
22460;SDS011;11397;48.410;11.468;2023-02-07T00:22:35;8.55;;;8.25;;
22460;SDS011;11397;48.410;11.468;2023-02-07T00:27:37;8.75;;;8.45;;
22460;SDS011;11397;48.410;11.468;2023-02-07T00:32:38;8.00;;;7.70;;
22460;SDS011;11397;48.410;11.468;2023-02-07T00:37:42;9.18;;;8.88;;
22460;SDS011;11397;48.410;11.468;2023-02-07T00:42:43;8.30;;;8.00;;
22460;SDS011;11397;48.410;11.468;2023-02-07T00:47:45;8.23;;;7.93;;
22460;SDS011;11397;48.410;11.468;2023-02-07T00:52:49;8.32;;;8.02;;
22460;SDS011;11397;48.410;11.468;2023-02-07T00:57:50;8.13;;;7.82;;
22460;SDS011;11397;48.410;11.468;2023-02-07T01:02:52;7.80;;;7.50;;
22460;SDS011;11397;48.410;11.468;2023-02-07T01:07:55;8.43;;;8.13;;
22460;SDS011;11397;48.410;11.468;2023-02-07T01:12:57;7.80;;;7.50;;
22460;SDS011;11397;48.410;11.468;2023-02-07T01:18:02;8.55;;;8.25;;
22460;SDS011;11397;48.410;11.468;2023-02-07T01:23:06;8.48;;;8.18;;
22460;SDS011;11397;48.410;11.468;2023-02-07T01:28:08;9.20;;;8.90;;
22460;SDS011;11397;48.410;11.468;2023-02-07T01:33:10;8.93;;;8.63;;
22460;SDS011;11397;48.410;11.468;2023-02-07T01:38:13;9.00;;;8.70;;
22460;SDS011;11397;48.410;11.468;2023-02-07T01:43:23;8.95;;;8.65;;
22460;SDS011;11397;48.410;11.468;2023-02-07T01:48:27;8.25;;;7.95;;
22460;SDS011;11397;48.410;11.468;2023-02-07T01:53:31;8.95;;;8.65;;
22460;SDS011;11397;48.410;11.468;2023-02-07T01:58:34;7.85;;;7.55;;
22460;SDS011;11397;48.410;11.468;2023-02-07T02:03:39;7.90;;;7.60;;
22460;SDS011;11397;48.410;11.468;2023-02-07T02:08:44;7.70;;;7.40;;
22460;SDS011;11397;48.410;11.468;2023-02-07T02:13:48;9.10;;;8.80;;
22460;SDS011;11397;48.410;11.468;2023-02-07T02:18:59;8.27;;;7.97;;
22460;SDS011;11397;48.410;11.468;2023-02-07T02:24:14;7.47;;;7.18;;
22460;SDS011;11397;48.410;11.468;2023-02-07T02:34:42;8.15;;;7.85;;
22460;SDS011;11397;48.410;11.468;2023-02-07T02:39:45;7.93;;;7.63;;
22460;SDS011;11397;48.410;11.468;2023-02-07T02:44:53;8.35;;;8.05;;
22460;SDS011;11397;48.410;11.468;2023-02-07T02:49:56;7.80;;;7.50;;
22460;SDS011;11397;48.410;11.468;2023-02-07T02:54:58;8.30;;;8.00;;
22460;SDS011;11397;48.410;11.468;2023-02-07T03:00:12;8.48;;;8.18;;
22460;SDS011;11397;48.410;11.468;2023-02-07T03:05:23;8.13;;;7.82;;
22460;SDS011;11397;48.410;11.468;2023-02-07T03:10:28;7.90;;;7.60;;
22460;SDS011;11397;48.410;11.468;2023-02-07T03:15:33;8.05;;;7.75;;
22460;SDS011;11397;48.410;11.468;2023-02-07T03:20:39;8.32;;;8.02;;
22460;SDS011;11397;48.410;11.468;2023-02-07T03:25:44;7.68;;;7.38;;
22460;SDS011;11397;48.410;11.468;2023-02-07T03:30:47;8.88;;;8.57;;
22460;SDS011;11397;48.410;11.468;2023-02-07T03:35:54;7.85;;;7.55;;
22460;SDS011;11397;48.410;11.468;2023-02-07T03:40:58;8.05;;;7.75;;
22460;SDS011;11397;48.410;11.468;2023-02-07T03:46:01;8.05;;;7.75;;
22460;SDS011;11397;48.410;11.468;2023-02-07T03:51:05;8.02;;;7.72;;
22460;SDS011;11397;48.410;11.468;2023-02-07T03:56:06;8.38;;;8.07;;
22460;SDS011;11397;48.410;11.468;2023-02-07T04:01:08;8.00;;;7.70;;
22460;SDS011;11397;48.410;11.468;2023-02-07T04:06:11;7.85;;;7.55;;
22460;SDS011;11397;48.410;11.468;2023-02-07T04:11:13;7.80;;;7.50;;
22460;SDS011;11397;48.410;11.468;2023-02-07T04:16:18;8.25;;;7.95;;
22460;SDS011;11397;48.410;11.468;2023-02-07T04:21:21;7.75;;;7.45;;
22460;SDS011;11397;48.410;11.468;2023-02-07T04:26:23;8.15;;;7.85;;
22460;SDS011;11397;48.410;11.468;2023-02-07T04:31:25;7.63;;;7.32;;
22460;SDS011;11397;48.410;11.468;2023-02-07T04:36:28;7.00;;;6.80;;
22460;SDS011;11397;48.410;11.468;2023-02-07T04:41:30;8.07;;;7.78;;
22460;SDS011;11397;48.410;11.468;2023-02-07T04:46:32;7.60;;;7.30;;
22460;SDS011;11397;48.410;11.468;2023-02-07T04:51:35;8.40;;;8.10;;
22460;SDS011;11397;48.410;11.468;2023-02-07T04:56:37;8.20;;;7.90;;
22460;SDS011;11397;48.410;11.468;2023-02-07T05:01:39;7.60;;;7.30;;
22460;SDS011;11397;48.410;11.468;2023-02-07T05:06:42;8.65;;;8.35;;
22460;SDS011;11397;48.410;11.468;2023-02-07T05:11:44;8.38;;;8.07;;
22460;SDS011;11397;48.410;11.468;2023-02-07T05:16:46;7.30;;;7.05;;
22460;SDS011;11397;48.410;11.468;2023-02-07T05:21:49;7.20;;;7.00;;
22460;SDS011;11397;48.410;11.468;2023-02-07T05:26:51;7.82;;;7.53;;
22460;SDS011;11397;48.410;11.468;2023-02-07T05:31:53;6.75;;;6.55;;
22460;SDS011;11397;48.410;11.468;2023-02-07T05:37:14;7.63;;;7.32;;
22460;SDS011;11397;48.410;11.468;2023-02-07T05:42:16;7.50;;;7.20;;
22460;SDS011;11397;48.410;11.468;2023-02-07T05:47:18;6.50;;;6.30;;
22460;SDS011;11397;48.410;11.468;2023-02-07T05:52:21;7.90;;;7.60;;
22460;SDS011;11397;48.410;11.468;2023-02-07T05:57:23;7.35;;;7.10;;
22460;SDS011;11397;48.410;11.468;2023-02-07T06:02:25;6.95;;;6.75;;
22460;SDS011;11397;48.410;11.468;2023-02-07T06:07:30;8.00;;;7.70;;
22460;SDS011;11397;48.410;11.468;2023-02-07T06:12:32;7.05;;;6.85;;
22460;SDS011;11397;48.410;11.468;2023-02-07T06:17:34;7.25;;;7.05;;
22460;SDS011;11397;48.410;11.468;2023-02-07T06:22:38;6.88;;;6.68;;
22460;SDS011;11397;48.410;11.468;2023-02-07T06:27:40;6.15;;;5.95;;
22460;SDS011;11397;48.410;11.468;2023-02-07T06:32:42;6.28;;;6.07;;
22460;SDS011;11397;48.410;11.468;2023-02-07T06:37:46;5.40;;;5.20;;
22460;SDS011;11397;48.410;11.468;2023-02-07T06:42:49;5.60;;;5.40;;
22460;SDS011;11397;48.410;11.468;2023-02-07T06:47:51;4.78;;;4.68;;
22460;SDS011;11397;48.410;11.468;2023-02-07T06:52:55;5.53;;;5.32;;
22460;SDS011;11397;48.410;11.468;2023-02-07T06:58:01;5.45;;;5.25;;
22460;SDS011;11397;48.410;11.468;2023-02-07T07:03:03;5.35;;;5.15;;
22460;SDS011;11397;48.410;11.468;2023-02-07T07:08:06;5.68;;;5.47;;
22460;SDS011;11397;48.410;11.468;2023-02-07T07:13:08;5.57;;;5.38;;
22460;SDS011;11397;48.410;11.468;2023-02-07T07:18:10;5.50;;;5.30;;
22460;SDS011;11397;48.410;11.468;2023-02-07T07:23:13;5.20;;;5.00;;
22460;SDS011;11397;48.410;11.468;2023-02-07T07:28:15;5.70;;;5.50;;
22460;SDS011;11397;48.410;11.468;2023-02-07T07:33:17;4.82;;;4.72;;
22460;SDS011;11397;48.410;11.468;2023-02-07T07:38:20;5.40;;;5.20;;
22460;SDS011;11397;48.410;11.468;2023-02-07T07:43:22;5.97;;;5.78;;
22460;SDS011;11397;48.410;11.468;2023-02-07T07:48:24;7.05;;;6.85;;
22460;SDS011;11397;48.410;11.468;2023-02-07T07:53:29;7.05;;;6.85;;
22460;SDS011;11397;48.410;11.468;2023-02-07T07:58:31;7.55;;;7.25;;
22460;SDS011;11397;48.410;11.468;2023-02-07T08:03:33;8.45;;;8.15;;
22460;SDS011;11397;48.410;11.468;2023-02-07T08:08:37;8.10;;;7.80;;
22460;SDS011;11397;48.410;11.468;2023-02-07T08:13:42;8.75;;;8.45;;
22460;SDS011;11397;48.410;11.468;2023-02-07T08:18:44;8.52;;;8.23;;
22460;SDS011;11397;48.410;11.468;2023-02-07T08:23:47;9.43;;;9.13;;
22460;SDS011;11397;48.410;11.468;2023-02-07T08:28:49;8.30;;;8.00;;
22460;SDS011;11397;48.410;11.468;2023-02-07T08:33:52;9.25;;;8.95;;
22460;SDS011;11397;48.410;11.468;2023-02-07T08:38:55;9.32;;;9.02;;
22460;SDS011;11397;48.410;11.468;2023-02-07T08:43:57;9.43;;;9.13;;
22460;SDS011;11397;48.410;11.468;2023-02-07T08:48:59;9.65;;;9.27;;
22460;SDS011;11397;48.410;11.468;2023-02-07T08:54:03;10.10;;;9.70;;
22460;SDS011;11397;48.410;11.468;2023-02-07T08:59:05;9.70;;;9.30;;
22460;SDS011;11397;48.410;11.468;2023-02-07T09:04:10;9.25;;;8.95;;
22460;SDS011;11397;48.410;11.468;2023-02-07T09:09:14;9.50;;;9.18;;
22460;SDS011;11397;48.410;11.468;2023-02-07T09:14:16;8.73;;;8.43;;
22460;SDS011;11397;48.410;11.468;2023-02-07T09:19:18;9.68;;;9.27;;
22460;SDS011;11397;48.410;11.468;2023-02-07T09:24:22;7.97;;;7.68;;
22460;SDS011;11397;48.410;11.468;2023-02-07T09:29:26;9.15;;;8.85;;
22460;SDS011;11397;48.410;11.468;2023-02-07T09:34:30;9.25;;;8.95;;
22460;SDS011;11397;48.410;11.468;2023-02-07T09:39:36;8.00;;;7.70;;
22460;SDS011;11397;48.410;11.468;2023-02-07T09:44:43;9.50;;;9.18;;
22460;SDS011;11397;48.410;11.468;2023-02-07T09:49:47;8.98;;;8.68;;
22460;SDS011;11397;48.410;11.468;2023-02-07T09:54:52;8.30;;;8.00;;
22460;SDS011;11397;48.410;11.468;2023-02-07T09:59:57;9.55;;;9.20;;
22460;SDS011;11397;48.410;11.468;2023-02-07T10:05:03;8.07;;;7.78;;
22460;SDS011;11397;48.410;11.468;2023-02-07T10:10:13;9.25;;;8.95;;
22460;SDS011;11397;48.410;11.468;2023-02-07T10:15:22;8.25;;;7.95;;
22460;SDS011;11397;48.410;11.468;2023-02-07T10:20:31;8.30;;;8.00;;
22460;SDS011;11397;48.410;11.468;2023-02-07T10:25:37;9.30;;;9.00;;
22460;SDS011;11397;48.410;11.468;2023-02-07T10:30:41;9.60;;;9.25;;
22460;SDS011;11397;48.410;11.468;2023-02-07T10:35:47;9.48;;;9.18;;
22460;SDS011;11397;48.410;11.468;2023-02-07T10:40:50;9.15;;;8.85;;
22460;SDS011;11397;48.410;11.468;2023-02-07T10:45:53;10.40;;;10.00;;
22460;SDS011;11397;48.410;11.468;2023-02-07T10:50:57;9.98;;;9.57;;
22460;SDS011;11397;48.410;11.468;2023-02-07T10:56:01;9.38;;;9.07;;
22460;SDS011;11397;48.410;11.468;2023-02-07T11:01:03;9.35;;;9.05;;
22460;SDS011;11397;48.410;11.468;2023-02-07T11:06:05;9.43;;;9.13;;
22460;SDS011;11397;48.410;11.468;2023-02-07T11:11:26;10.15;;;9.75;;
22460;SDS011;11397;48.410;11.468;2023-02-07T11:16:30;10.25;;;9.85;;
22460;SDS011;11397;48.410;11.468;2023-02-07T11:21:33;9.18;;;8.88;;
22460;SDS011;11397;48.410;11.468;2023-02-07T11:26:38;10.43;;;10.02;;
22460;SDS011;11397;48.410;11.468;2023-02-07T11:31:41;8.85;;;8.55;;
22460;SDS011;11397;48.410;11.468;2023-02-07T11:36:44;8.45;;;8.15;;
22460;SDS011;11397;48.410;11.468;2023-02-07T11:41:53;11.20;;;10.80;;
22460;SDS011;11397;48.410;11.468;2023-02-07T11:46:57;10.23;;;9.82;;
22460;SDS011;11397;48.410;11.468;2023-02-07T11:52:00;9.68;;;9.30;;
22460;SDS011;11397;48.410;11.468;2023-02-07T11:57:04;9.05;;;8.75;;
22460;SDS011;11397;48.410;11.468;2023-02-07T12:02:12;10.32;;;9.93;;
22460;SDS011;11397;48.410;11.468;2023-02-07T12:07:17;9.43;;;9.10;;
22460;SDS011;11397;48.410;11.468;2023-02-07T12:12:22;10.00;;;9.60;;
22460;SDS011;11397;48.410;11.468;2023-02-07T12:17:30;10.20;;;9.80;;
22460;SDS011;11397;48.410;11.468;2023-02-07T12:22:35;10.65;;;10.25;;
22460;SDS011;11397;48.410;11.468;2023-02-07T12:27:42;9.95;;;9.55;;
22460;SDS011;11397;48.410;11.468;2023-02-07T12:32:59;10.27;;;9.88;;
22460;SDS011;11397;48.410;11.468;2023-02-07T12:38:07;10.43;;;10.02;;
22460;SDS011;11397;48.410;11.468;2023-02-07T12:43:17;9.65;;;9.27;;
22460;SDS011;11397;48.410;11.468;2023-02-07T12:48:21;10.63;;;10.23;;
22460;SDS011;11397;48.410;11.468;2023-02-07T12:53:28;9.85;;;9.45;;
22460;SDS011;11397;48.410;11.468;2023-02-07T12:58:37;10.57;;;10.18;;
22460;SDS011;11397;48.410;11.468;2023-02-07T13:03:54;10.05;;;9.65;;
22460;SDS011;11397;48.410;11.468;2023-02-07T13:09:02;9.75;;;9.35;;
22460;SDS011;11397;48.410;11.468;2023-02-07T13:14:13;10.15;;;9.75;;
22460;SDS011;11397;48.410;11.468;2023-02-07T13:19:19;9.40;;;9.10;;
22460;SDS011;11397;48.410;11.468;2023-02-07T13:24:26;8.65;;;8.35;;
22460;SDS011;11397;48.410;11.468;2023-02-07T13:29:29;10.35;;;9.95;;
22460;SDS011;11397;48.410;11.468;2023-02-07T13:34:34;10.15;;;9.75;;
22460;SDS011;11397;48.410;11.468;2023-02-07T13:39:40;9.32;;;9.02;;
22460;SDS011;11397;48.410;11.468;2023-02-07T13:44:50;9.57;;;9.20;;
22460;SDS011;11397;48.410;11.468;2023-02-07T13:49:56;9.85;;;9.45;;
22460;SDS011;11397;48.410;11.468;2023-02-07T13:55:04;9.25;;;8.95;;
22460;SDS011;11397;48.410;11.468;2023-02-07T14:00:16;8.95;;;8.65;;
22460;SDS011;11397;48.410;11.468;2023-02-07T14:05:21;9.82;;;9.43;;
22460;SDS011;11397;48.410;11.468;2023-02-07T14:15:53;10.32;;;9.93;;
22460;SDS011;11397;48.410;11.468;2023-02-07T14:21:00;8.98;;;8.68;;
22460;SDS011;11397;48.410;11.468;2023-02-07T14:26:02;8.98;;;8.68;;
22460;SDS011;11397;48.410;11.468;2023-02-07T14:31:23;8.90;;;8.60;;
22460;SDS011;11397;48.410;11.468;2023-02-07T14:36:32;9.00;;;8.70;;
22460;SDS011;11397;48.410;11.468;2023-02-07T14:41:38;9.95;;;9.55;;
22460;SDS011;11397;48.410;11.468;2023-02-07T14:46:45;9.80;;;9.40;;
22460;SDS011;11397;48.410;11.468;2023-02-07T14:51:51;8.93;;;8.63;;
22460;SDS011;11397;48.410;11.468;2023-02-07T14:57:05;9.45;;;9.15;;
22460;SDS011;11397;48.410;11.468;2023-02-07T15:07:30;9.60;;;9.23;;
22460;SDS011;11397;48.410;11.468;2023-02-07T15:12:32;9.10;;;8.80;;
22460;SDS011;11397;48.410;11.468;2023-02-07T15:17:37;10.02;;;9.63;;
22460;SDS011;11397;48.410;11.468;2023-02-07T15:22:45;9.35;;;9.05;;
22460;SDS011;11397;48.410;11.468;2023-02-07T15:27:57;9.85;;;9.45;;
22460;SDS011;11397;48.410;11.468;2023-02-07T15:32:59;8.95;;;8.65;;
22460;SDS011;11397;48.410;11.468;2023-02-07T15:38:14;9.32;;;9.02;;
22460;SDS011;11397;48.410;11.468;2023-02-07T15:43:25;9.82;;;9.43;;
22460;SDS011;11397;48.410;11.468;2023-02-07T15:48:27;10.10;;;9.70;;
22460;SDS011;11397;48.410;11.468;2023-02-07T15:53:31;9.13;;;8.82;;
22460;SDS011;11397;48.410;11.468;2023-02-07T15:58:33;9.88;;;9.48;;
22460;SDS011;11397;48.410;11.468;2023-02-07T16:03:37;8.90;;;8.60;;
22460;SDS011;11397;48.410;11.468;2023-02-07T16:08:43;8.82;;;8.52;;
22460;SDS011;11397;48.410;11.468;2023-02-07T16:13:51;8.63;;;8.32;;
22460;SDS011;11397;48.410;11.468;2023-02-07T16:19:14;7.95;;;7.65;;
22460;SDS011;11397;48.410;11.468;2023-02-07T16:24:18;9.05;;;8.75;;
22460;SDS011;11397;48.410;11.468;2023-02-07T16:29:22;8.82;;;8.52;;
22460;SDS011;11397;48.410;11.468;2023-02-07T16:34:25;9.43;;;9.13;;
22460;SDS011;11397;48.410;11.468;2023-02-07T16:39:28;9.02;;;8.73;;
22460;SDS011;11397;48.410;11.468;2023-02-07T16:44:30;9.15;;;8.85;;
22460;SDS011;11397;48.410;11.468;2023-02-07T16:49:41;9.25;;;8.95;;
22460;SDS011;11397;48.410;11.468;2023-02-07T16:54:45;9.48;;;9.18;;
22460;SDS011;11397;48.410;11.468;2023-02-07T16:59:47;8.57;;;8.27;;
22460;SDS011;11397;48.410;11.468;2023-02-07T17:04:49;8.55;;;8.25;;
22460;SDS011;11397;48.410;11.468;2023-02-07T17:09:52;9.18;;;8.88;;
22460;SDS011;11397;48.410;11.468;2023-02-07T17:14:54;9.35;;;9.05;;
22460;SDS011;11397;48.410;11.468;2023-02-07T17:19:56;9.00;;;8.70;;
22460;SDS011;11397;48.410;11.468;2023-02-07T17:24:59;9.68;;;9.30;;
22460;SDS011;11397;48.410;11.468;2023-02-07T17:30:01;9.55;;;9.20;;
22460;SDS011;11397;48.410;11.468;2023-02-07T17:35:05;9.90;;;9.50;;
22460;SDS011;11397;48.410;11.468;2023-02-07T17:40:14;9.95;;;9.55;;
22460;SDS011;11397;48.410;11.468;2023-02-07T17:45:18;10.10;;;9.70;;
22460;SDS011;11397;48.410;11.468;2023-02-07T17:50:21;9.77;;;9.38;;
22460;SDS011;11397;48.410;11.468;2023-02-07T17:55:25;9.30;;;9.00;;
22460;SDS011;11397;48.410;11.468;2023-02-07T18:00:27;9.10;;;8.80;;
22460;SDS011;11397;48.410;11.468;2023-02-07T18:05:29;9.10;;;8.80;;
22460;SDS011;11397;48.410;11.468;2023-02-07T18:10:33;9.02;;;8.73;;
22460;SDS011;11397;48.410;11.468;2023-02-07T18:15:35;9.00;;;8.70;;
22460;SDS011;11397;48.410;11.468;2023-02-07T18:20:37;9.75;;;9.35;;
22460;SDS011;11397;48.410;11.468;2023-02-07T18:25:44;9.57;;;9.23;;
22460;SDS011;11397;48.410;11.468;2023-02-07T18:30:47;9.93;;;9.52;;
22460;SDS011;11397;48.410;11.468;2023-02-07T18:35:54;9.52;;;9.20;;
22460;SDS011;11397;48.410;11.468;2023-02-07T18:40:57;9.75;;;9.35;;
22460;SDS011;11397;48.410;11.468;2023-02-07T18:45:59;8.35;;;8.05;;
22460;SDS011;11397;48.410;11.468;2023-02-07T18:51:08;9.90;;;9.50;;
22460;SDS011;11397;48.410;11.468;2023-02-07T18:56:12;8.45;;;8.15;;
22460;SDS011;11397;48.410;11.468;2023-02-07T19:01:16;8.70;;;8.40;;
22460;SDS011;11397;48.410;11.468;2023-02-07T19:06:19;9.20;;;8.90;;
22460;SDS011;11397;48.410;11.468;2023-02-07T19:11:23;8.35;;;8.05;;
22460;SDS011;11397;48.410;11.468;2023-02-07T19:16:26;8.68;;;8.38;;
22460;SDS011;11397;48.410;11.468;2023-02-07T19:21:28;9.35;;;9.05;;
22460;SDS011;11397;48.410;11.468;2023-02-07T19:26:31;9.30;;;9.00;;
22460;SDS011;11397;48.410;11.468;2023-02-07T19:31:33;8.52;;;8.23;;
22460;SDS011;11397;48.410;11.468;2023-02-07T19:36:37;8.93;;;8.63;;
22460;SDS011;11397;48.410;11.468;2023-02-07T19:41:40;8.35;;;8.05;;
22460;SDS011;11397;48.410;11.468;2023-02-07T19:46:42;9.70;;;9.32;;
22460;SDS011;11397;48.410;11.468;2023-02-07T19:51:44;9.40;;;9.10;;
22460;SDS011;11397;48.410;11.468;2023-02-07T19:56:49;10.57;;;9.98;;
22460;SDS011;11397;48.410;11.468;2023-02-07T20:01:51;8.35;;;8.05;;
22460;SDS011;11397;48.410;11.468;2023-02-07T20:06:53;8.55;;;8.25;;
22460;SDS011;11397;48.410;11.468;2023-02-07T20:11:57;8.98;;;8.68;;
22460;SDS011;11397;48.410;11.468;2023-02-07T20:16:58;7.93;;;7.63;;
22460;SDS011;11397;48.410;11.468;2023-02-07T20:22:00;8.10;;;7.80;;
22460;SDS011;11397;48.410;11.468;2023-02-07T20:27:04;8.30;;;8.00;;
22460;SDS011;11397;48.410;11.468;2023-02-07T20:32:05;8.20;;;7.90;;
22460;SDS011;11397;48.410;11.468;2023-02-07T20:37:10;8.10;;;7.80;;
22460;SDS011;11397;48.410;11.468;2023-02-07T20:42:13;8.20;;;7.90;;
22460;SDS011;11397;48.410;11.468;2023-02-07T20:47:15;8.35;;;8.05;;
22460;SDS011;11397;48.410;11.468;2023-02-07T20:52:17;8.55;;;8.25;;
22460;SDS011;11397;48.410;11.468;2023-02-07T20:57:20;8.20;;;7.90;;
22460;SDS011;11397;48.410;11.468;2023-02-07T21:02:22;7.78;;;7.47;;
22460;SDS011;11397;48.410;11.468;2023-02-07T21:07:24;8.77;;;8.48;;
22460;SDS011;11397;48.410;11.468;2023-02-07T21:12:27;8.00;;;7.70;;
22460;SDS011;11397;48.410;11.468;2023-02-07T21:17:31;8.23;;;7.93;;
22460;SDS011;11397;48.410;11.468;2023-02-07T21:22:36;7.97;;;7.68;;
22460;SDS011;11397;48.410;11.468;2023-02-07T21:27:39;8.05;;;7.75;;
22460;SDS011;11397;48.410;11.468;2023-02-07T21:32:41;8.95;;;8.65;;
22460;SDS011;11397;48.410;11.468;2023-02-07T21:37:43;10.05;;;9.40;;
22460;SDS011;11397;48.410;11.468;2023-02-07T21:42:46;8.68;;;8.38;;
22460;SDS011;11397;48.410;11.468;2023-02-07T21:47:48;7.95;;;7.65;;
22460;SDS011;11397;48.410;11.468;2023-02-07T21:52:50;7.20;;;7.00;;
22460;SDS011;11397;48.410;11.468;2023-02-07T21:57:53;8.25;;;7.95;;
22460;SDS011;11397;48.410;11.468;2023-02-07T22:02:55;8.98;;;8.60;;
22460;SDS011;11397;48.410;11.468;2023-02-07T22:07:57;8.25;;;7.95;;
22460;SDS011;11397;48.410;11.468;2023-02-07T22:13:00;8.32;;;8.02;;
22460;SDS011;11397;48.410;11.468;2023-02-07T22:18:02;8.10;;;7.80;;
22460;SDS011;11397;48.410;11.468;2023-02-07T22:23:04;8.63;;;8.32;;
22460;SDS011;11397;48.410;11.468;2023-02-07T22:28:07;8.60;;;8.30;;
22460;SDS011;11397;48.410;11.468;2023-02-07T22:33:09;8.80;;;8.50;;
22460;SDS011;11397;48.410;11.468;2023-02-07T22:38:12;8.35;;;8.05;;
22460;SDS011;11397;48.410;11.468;2023-02-07T22:43:15;7.78;;;7.47;;
22460;SDS011;11397;48.410;11.468;2023-02-07T22:48:17;8.20;;;7.90;;
22460;SDS011;11397;48.410;11.468;2023-02-07T22:53:19;9.98;;;9.30;;
22460;SDS011;11397;48.410;11.468;2023-02-07T22:58:22;7.93;;;7.63;;
22460;SDS011;11397;48.410;11.468;2023-02-07T23:03:24;7.55;;;7.28;;
22460;SDS011;11397;48.410;11.468;2023-02-07T23:08:25;7.93;;;7.63;;
22460;SDS011;11397;48.410;11.468;2023-02-07T23:13:29;8.45;;;8.15;;
22460;SDS011;11397;48.410;11.468;2023-02-07T23:18:30;7.45;;;7.20;;
22460;SDS011;11397;48.410;11.468;2023-02-07T23:23:32;7.60;;;7.30;;
22460;SDS011;11397;48.410;11.468;2023-02-07T23:28:35;8.38;;;8.07;;
22460;SDS011;11397;48.410;11.468;2023-02-07T23:33:37;8.02;;;7.72;;
22460;SDS011;11397;48.410;11.468;2023-02-07T23:38:39;9.43;;;9.02;;
22460;SDS011;11397;48.410;11.468;2023-02-07T23:43:42;8.55;;;8.25;;
22460;SDS011;11397;48.410;11.468;2023-02-07T23:48:45;8.25;;;7.95;;
22460;SDS011;11397;48.410;11.468;2023-02-07T23:53:47;8.15;;;7.85;;
22460;SDS011;11397;48.410;11.468;2023-02-07T23:58:51;7.82;;;7.53;;
